Impacts METAR Board INFO
IDs:

KJFK - New York/Kennedy Int, NY, US

Updated at: 1924 UTC 23 Jan 2018
Potential Impact None Slight Moderate High
Time23/07Z 23/08Z 23/09Z 23/10Z 23/11Z 23/12Z 23/13Z 23/14Z 23/15Z 23/16Z 23/17Z 23/18Z 23/19Z
VIS0.25 0.5 0.5 0.5 1.5 1.5 0.5 0.13 0.13 8 2.5 0.5 10
CIG3 3 3 2 4 4 3 2 2 31 19 3 60
CoverOVCOVCOVCOVXOVCOVCOVCOVXOVCOVCOVCOVCBKN
FltCatLIFRLIFRLIFRLIFRLIFRLIFRLIFRLIFRLIFRVFRIFRLIFRVFR
WXBRBRBRFGBR-RA BRBR-RA FG-RA BR---RA BRBR--
WDir40701000120160180180190170170180230
WSpd5 4 6 0 6 16 17 14 17 26 22 19 5
WGst-- -- -- -- -- -- -- -- -- 32 29 28 --
Raw hourly METARs
KJFK 230659Z 04005KT 1/4SM R04R/1800V3500FT BR OVC003 05/05 A3000 RMK AO2 SFC VIS 1 T00500050
KJFK 230751Z 07004KT 1/2SM R04R/P6000FT BR BKN003 BKN032 OVC110 05/05 A2997 RMK AO2 SFC VIS 3 SLP146 T00500050
KJFK 230851Z 10006KT 1/2SM R04R/1200V1400FT BR OVC003 06/06 A2992 RMK AO2 SFC VIS 3/4 SLP132 T00610061 58038
KJFK 230951Z 00000KT 1/2SM R04R/1400V2000FT FG VV002 08/08 A2989 RMK AO2 SLP122 T00780078
KJFK 231051Z 12006KT 1 1/2SM BR OVC004 07/07 A2985 RMK AO2 SFC VIS 2 1/2 LTG DSNT NW SLP109 T00720072
KJFK 231151Z 16016KT 1 1/2SM -RA BR OVC004 08/08 A2981 RMK AO2 SFC VIS 5 RAB01E11B14 SLP092 CIG 002V005 P0001 60001 70001 T00830083 10083 20044 58040
KJFK 231251Z 18017KT 1/2SM R04R/P6000FT BR BKN003 OVC019 08/08 A2978 RMK AO2 SFC VIS 5 RAE25B41E50 SLP086 CIG 002V004 P0002 T00830083 $
KJFK 231400Z 18014KT 1/8SM R04R/1600V2400FT -RA FG VV002 08/08 A2975 RMK AO2 SFC VIS 1/2 P0000 T00780078 $
KJFK 231451Z 19017KT 1/8SM R04R/2200V3000FT -RA BR SCT000 OVC002 08/08 A2974 RMK AO2 SFC VIS 1 1/4 SLP070 BR SCT000 P0005 60008 T00830083 56023 $
KJFK 231605Z 17026G32KT 8SM FEW004 BKN031 OVC085 11/11 A2965 RMK AO2 PK WND 18032/1602 RAE1559 P0000 T01110111 $
KJFK 231651Z 17022G29KT 2 1/2SM -RA BR FEW005 BKN019 OVC085 11/11 A2960 RMK AO2 PK WND 18032/1602 SFC VIS 6 RAE1559B26 SLP023 P0001 T01060106 $
KJFK 231751Z 18019G28KT 1/2SM R04R/P6000FT BR FEW000 BKN003 OVC022 11/11 A2954 RMK AO2 PK WND 18028/1737 SFC VIS 2 RAE08B24E34 SLP003 BR FEW000 P0001 60020 T01060106 10111 20072 56067 $
KJFK 231851Z 23005KT 10SM FEW017 BKN060 BKN085 BKN250 12/11 A2954 RMK AO2 PK WND 21032/1807 RAB1758E43 SLP002 P0001 T01170111 $